Morrison, Oklahoma
Current Conditions -  °F | °C
As of 7:53 PM on Saturday 20 Dec 2014 (Local Time) from KSWO Reporting Station
Overcast Overcast  
Wind Chill: 40°   Ceiling: 1600
Heat Index: 44°   Visibility: 10mi
Dew Point: 37°   Wind: 7mph
Humidity: 76%   Direction: 180°S
Pressure: 30.16"   Gusts: NA
Location:  36.3°N, 97.01°W
Report Text: KSWO 210153Z AUTO 18006KT 10SM OVC016 07/03 A3016 RMK AO2 SLP215 T00670028
Loading
Personal Weather Stations






























Interactive Weather Map New forecast layout! Learn more

10-Day Weather Forecast

Advertisements
Track Severe Weather on mobile